»·PEaware :: N80VJ KSNA-KBUR

N80VJ :: KSNA-KBUR

FLIGHT INFORMATION

Flight Status: Arrived
Operator: Privately registered:
United States
More flights under this callsign
Pilot: Christopher S. (28961)
Aircraft: CIRRUS SR-20
(SR20)
More flights by this aircraft type
Origin: KSNA John Wayne-Orange Co
United States
Destination: KBUR Bob Hope-Burbank
United States
More flights between these airports :: More routes between these airports
Route: SLI V23 POPPR SMO125 SMO SMO311 SILEX
File this flight plan on PilotEdge
Remarks: TEC ROUTE CSTP1
Altitude:
(Current/Filed)
4,000ft
Speed:
(Current/Filed)
147kts
Departed: 18-Jan-21 12:48 PM
Arrived: 18-Jan-21 01:24 PM
Distance/Time
Traveled:
40nm/0:36
Distance/Time
To Go:
Arrived

Flight Plot

Page will automatically refresh every two minutes.


Map Options




Map Legend


Flown Route
Filed Route
Departure Airport
Arrival Airport
Navaid (VOR, NDB)
Fix

Horizontal Profiles

Position Reports

Time Latitude Longitude Heading Altitude Ground
Speed
18-Jan-21 12:34 33.680020 -117.861711 105 59ft 0kts
18-Jan-21 12:35 33.680020 -117.861711 105 59ft 0kts
18-Jan-21 12:36 33.680020 -117.861711 105 59ft 0kts
18-Jan-21 12:37 33.680020 -117.861711 105 59ft 0kts
18-Jan-21 12:38 33.680020 -117.861711 105 59ft 0kts
18-Jan-21 12:39 33.680020 -117.861711 105 59ft 0kts
18-Jan-21 12:40 33.680020 -117.861711 105 59ft 0kts
18-Jan-21 12:41 33.680020 -117.861711 105 59ft 0kts
18-Jan-21 12:42 33.680020 -117.861711 105 59ft 0kts
18-Jan-21 12:43 33.680020 -117.861711 105 59ft 0kts
18-Jan-21 12:44 33.680020 -117.861711 105 59ft 0kts
18-Jan-21 12:45 33.679986 -117.861915 240 59ft 8kts
18-Jan-21 12:46 33.679951 -117.863610 294 59ft 0kts
18-Jan-21 12:47 33.672498 -117.869022 209 267ft 84kts
18-Jan-21 12:48 33.655740 -117.892378 231 1600ft 93kts
18-Jan-21 12:49 33.637877 -117.921150 232 2769ft 102kts
18-Jan-21 12:50 33.628194 -117.950345 311 3987ft 100kts
18-Jan-21 12:51 33.643434 -117.989351 291 4141ft 146kts
18-Jan-21 12:52 33.658740 -118.036531 291 4134ft 151kts
18-Jan-21 12:53 33.687145 -118.074785 316 4136ft 151kts
18-Jan-21 12:54 33.718317 -118.111205 315 4079ft 155kts
18-Jan-21 12:55 33.748897 -118.147152 315 4033ft 143kts
18-Jan-21 12:56 33.778300 -118.181815 315 4036ft 142kts
18-Jan-21 12:57 33.808432 -118.217396 315 4036ft 142kts
18-Jan-21 12:58 33.838853 -118.253366 315 4036ft 143kts
18-Jan-21 12:59 33.867988 -118.287852 315 4036ft 142kts
18-Jan-21 13:00 33.898260 -118.323725 315 4036ft 142kts
18-Jan-21 13:01 33.927926 -118.358918 315 4036ft 142kts
18-Jan-21 13:02 33.958270 -118.394959 316 4036ft 142kts
18-Jan-21 13:03 33.987592 -118.429812 316 4036ft 143kts
18-Jan-21 13:04 34.015986 -118.465800 312 4036ft 144kts
18-Jan-21 13:05 34.043351 -118.503419 312 4036ft 146kts
18-Jan-21 13:06 34.071413 -118.541693 312 4037ft 151kts
18-Jan-21 13:07 34.099574 -118.579812 312 4035ft 152kts
18-Jan-21 13:08 34.128007 -118.619453 312 4027ft 147kts
18-Jan-21 13:09 34.154448 -118.657855 312 4025ft 140kts
18-Jan-21 13:10 34.183003 -118.649336 60 3670ft 140kts
18-Jan-21 13:11 34.199168 -118.607485 78 3610ft 109kts
18-Jan-21 13:12 34.200363 -118.568185 89 3627ft 113kts
18-Jan-21 13:13 34.199789 -118.521992 89 3030ft 135kts
18-Jan-21 13:14 34.199302 -118.481132 89 2612ft 106kts
18-Jan-21 13:15 34.198876 -118.445614 89 2015ft 101kts
18-Jan-21 13:16 34.198446 -118.410792 89 1454ft 99kts
18-Jan-21 13:17 34.198212 -118.375921 89 1109ft 117kts
18-Jan-21 13:18 34.176116 -118.351488 172 2129ft 124kts
18-Jan-21 13:19 34.169902 -118.390059 284 2077ft 156kts
18-Jan-21 13:20 34.183694 -118.425161 337 1893ft 101kts
18-Jan-21 13:21 34.197784 -118.403621 82 1305ft 97kts
18-Jan-21 13:22 34.198008 -118.374095 89 882ft 81kts
18-Jan-21 13:23 34.198537 -118.360244 11 722ft 0kts
18-Jan-21 13:24 34.199565 -118.360074 38 724ft 0kts
18-Jan-21 13:25 34.199564 -118.360074 38 724ft 0kts
18-Jan-21 13:26 34.199564 -118.360074 38 724ft 0kts
18-Jan-21 13:27 34.199564 -118.360074 38 724ft 0kts
18-Jan-21 13:28 34.199564 -118.360074 38 724ft 0kts
18-Jan-21 13:29 34.199564 -118.360074 38 724ft 0kts
18-Jan-21 13:30 34.199564 -118.360074 38 724ft 0kts
18-Jan-21 13:31 34.199564 -118.360074 38 724ft 0kts
18-Jan-21 13:32 34.199564 -118.360074 38 724ft 0kts
18-Jan-21 13:33 34.199564 -118.360074 38 724ft 0kts
18-Jan-21 13:34 34.199564 -118.360074 38 724ft 0kts
18-Jan-21 13:35 34.199564 -118.360074 38 724ft 0kts
18-Jan-21 13:36 34.199564 -118.360074 38 724ft 0kts
18-Jan-21 13:37 34.199564 -118.360074 38 724ft 0kts
18-Jan-21 13:39 34.199564 -118.360074 38 724ft 0kts

Navigation Log

Ident Type
Flight plan parsing failed, navigation log unavailable